Alum Bridge, West Virginia
Current Conditions -  °F | °C
As of 6:35 AM on Thursday 27 Nov 2014 (Local Time) from KW22 Reporting Station
Moderate Fog Moderate Fog  
Wind Chill: 30°   Ceiling: 100
Heat Index: NA   Visibility: 0mi
Dew Point: 32°   Wind: 0mph
Humidity: NA   Direction: NA
Pressure: 30"   Gusts: NA
Location:  39.04°N, 80.66°W
Report Text: KW22 271135Z AUTO 00000KT M1/4SM FZFG OVC001 M01/M00 A3000 RMK AO2
Loading
Personal Weather Stations






























Interactive Weather Map New forecast layout! Learn more

10-Day Weather Forecast

Advertisements
Track Severe Weather on mobile